sensor_id;sensor_type;location;lat;lon;timestamp;P1;durP1;ratioP1;P2;durP2;ratioP2
27313;SDS011;14800;48.174;9.798;2022-12-15T00:00:06;23.33;;;14.70;;
27313;SDS011;14800;48.174;9.798;2022-12-15T00:02:51;20.35;;;13.82;;
27313;SDS011;14800;48.174;9.798;2022-12-15T00:05:35;21.10;;;14.23;;
27313;SDS011;14800;48.174;9.798;2022-12-15T00:08:19;20.70;;;13.63;;
27313;SDS011;14800;48.174;9.798;2022-12-15T00:11:04;22.38;;;13.93;;
27313;SDS011;14800;48.174;9.798;2022-12-15T00:13:48;20.52;;;12.80;;
27313;SDS011;14800;48.174;9.798;2022-12-15T00:16:33;23.02;;;14.93;;
27313;SDS011;14800;48.174;9.798;2022-12-15T00:19:17;20.95;;;13.90;;
27313;SDS011;14800;48.174;9.798;2022-12-15T00:22:01;22.67;;;14.18;;
27313;SDS011;14800;48.174;9.798;2022-12-15T00:24:47;21.73;;;14.07;;
27313;SDS011;14800;48.174;9.798;2022-12-15T00:27:31;21.85;;;13.85;;
27313;SDS011;14800;48.174;9.798;2022-12-15T00:30:16;22.38;;;14.55;;
27313;SDS011;14800;48.174;9.798;2022-12-15T00:33:05;23.58;;;14.27;;
27313;SDS011;14800;48.174;9.798;2022-12-15T00:35:53;22.77;;;14.63;;
27313;SDS011;14800;48.174;9.798;2022-12-15T00:38:38;22.13;;;14.77;;
27313;SDS011;14800;48.174;9.798;2022-12-15T00:41:13;22.02;;;14.63;;
27313;SDS011;14800;48.174;9.798;2022-12-15T00:43:40;24.10;;;15.95;;
27313;SDS011;14800;48.174;9.798;2022-12-15T00:46:05;22.35;;;14.68;;
27313;SDS011;14800;48.174;9.798;2022-12-15T00:48:50;24.77;;;15.82;;
27313;SDS011;14800;48.174;9.798;2022-12-15T00:51:16;24.20;;;15.77;;
27313;SDS011;14800;48.174;9.798;2022-12-15T00:53:42;25.55;;;15.75;;
27313;SDS011;14800;48.174;9.798;2022-12-15T00:56:27;24.15;;;15.45;;
27313;SDS011;14800;48.174;9.798;2022-12-15T00:59:12;25.25;;;16.67;;
27313;SDS011;14800;48.174;9.798;2022-12-15T01:01:56;24.95;;;15.55;;
27313;SDS011;14800;48.174;9.798;2022-12-15T01:04:41;23.80;;;15.43;;
27313;SDS011;14800;48.174;9.798;2022-12-15T01:07:25;25.67;;;16.52;;
27313;SDS011;14800;48.174;9.798;2022-12-15T01:10:09;22.77;;;15.15;;
27313;SDS011;14800;48.174;9.798;2022-12-15T01:12:53;24.10;;;15.60;;
27313;SDS011;14800;48.174;9.798;2022-12-15T01:15:37;25.10;;;15.70;;
27313;SDS011;14800;48.174;9.798;2022-12-15T01:18:22;22.25;;;14.15;;
27313;SDS011;14800;48.174;9.798;2022-12-15T01:23:34;24.17;;;15.13;;
27313;SDS011;14800;48.174;9.798;2022-12-15T01:26:00;23.75;;;14.57;;
27313;SDS011;14800;48.174;9.798;2022-12-15T01:28:26;22.83;;;14.68;;
27313;SDS011;14800;48.174;9.798;2022-12-15T01:30:52;21.42;;;13.82;;
27313;SDS011;14800;48.174;9.798;2022-12-15T01:33:18;20.42;;;13.20;;
27313;SDS011;14800;48.174;9.798;2022-12-15T01:35:44;20.00;;;13.15;;
27313;SDS011;14800;48.174;9.798;2022-12-15T01:38:18;23.35;;;14.65;;
27313;SDS011;14800;48.174;9.798;2022-12-15T01:40:49;21.27;;;14.23;;
27313;SDS011;14800;48.174;9.798;2022-12-15T01:43:18;20.83;;;13.35;;
27313;SDS011;14800;48.174;9.798;2022-12-15T01:48:40;20.50;;;14.10;;
27313;SDS011;14800;48.174;9.798;2022-12-15T01:53:51;21.05;;;13.38;;
27313;SDS011;14800;48.174;9.798;2022-12-15T01:56:18;19.13;;;13.20;;
27313;SDS011;14800;48.174;9.798;2022-12-15T01:58:46;19.02;;;12.80;;
27313;SDS011;14800;48.174;9.798;2022-12-15T02:01:14;22.00;;;12.95;;
27313;SDS011;14800;48.174;9.798;2022-12-15T02:03:40;20.02;;;13.48;;
27313;SDS011;14800;48.174;9.798;2022-12-15T02:06:07;18.58;;;12.82;;
27313;SDS011;14800;48.174;9.798;2022-12-15T02:08:35;19.20;;;12.77;;
27313;SDS011;14800;48.174;9.798;2022-12-15T02:11:07;20.05;;;13.52;;
27313;SDS011;14800;48.174;9.798;2022-12-15T02:22:33;18.15;;;11.90;;
27313;SDS011;14800;48.174;9.798;2022-12-15T02:25:21;17.88;;;11.77;;
27313;SDS011;14800;48.174;9.798;2022-12-15T02:31:00;19.45;;;12.40;;
27313;SDS011;14800;48.174;9.798;2022-12-15T02:33:53;17.58;;;11.60;;
27313;SDS011;14800;48.174;9.798;2022-12-15T02:36:41;18.13;;;12.02;;
27313;SDS011;14800;48.174;9.798;2022-12-15T02:39:13;19.15;;;12.05;;
27313;SDS011;14800;48.174;9.798;2022-12-15T02:41:43;19.67;;;11.95;;
27313;SDS011;14800;48.174;9.798;2022-12-15T02:44:11;17.35;;;11.45;;
27313;SDS011;14800;48.174;9.798;2022-12-15T02:49:45;17.83;;;12.15;;
27313;SDS011;14800;48.174;9.798;2022-12-15T03:00:32;16.00;;;11.23;;
27313;SDS011;14800;48.174;9.798;2022-12-15T03:03:03;17.75;;;11.38;;
27313;SDS011;14800;48.174;9.798;2022-12-15T03:05:29;18.58;;;11.85;;
27313;SDS011;14800;48.174;9.798;2022-12-15T03:07:55;20.15;;;12.43;;
27313;SDS011;14800;48.174;9.798;2022-12-15T03:10:22;18.75;;;11.90;;
27313;SDS011;14800;48.174;9.798;2022-12-15T03:12:49;19.27;;;12.23;;
27313;SDS011;14800;48.174;9.798;2022-12-15T03:15:15;20.73;;;12.60;;
27313;SDS011;14800;48.174;9.798;2022-12-15T03:17:42;17.55;;;11.75;;
27313;SDS011;14800;48.174;9.798;2022-12-15T03:20:08;20.90;;;12.30;;
27313;SDS011;14800;48.174;9.798;2022-12-15T03:22:34;19.30;;;11.90;;
27313;SDS011;14800;48.174;9.798;2022-12-15T03:25:00;18.67;;;11.70;;
27313;SDS011;14800;48.174;9.798;2022-12-15T03:27:26;20.02;;;12.15;;
27313;SDS011;14800;48.174;9.798;2022-12-15T03:29:51;20.50;;;12.40;;
27313;SDS011;14800;48.174;9.798;2022-12-15T03:32:20;20.40;;;12.68;;
27313;SDS011;14800;48.174;9.798;2022-12-15T03:34:45;19.27;;;12.23;;
27313;SDS011;14800;48.174;9.798;2022-12-15T03:37:11;17.48;;;12.23;;
27313;SDS011;14800;48.174;9.798;2022-12-15T03:39:37;19.98;;;12.43;;
27313;SDS011;14800;48.174;9.798;2022-12-15T03:42:03;19.25;;;12.57;;
27313;SDS011;14800;48.174;9.798;2022-12-15T03:44:28;20.42;;;12.60;;
27313;SDS011;14800;48.174;9.798;2022-12-15T03:46:54;18.77;;;12.35;;
27313;SDS011;14800;48.174;9.798;2022-12-15T03:49:19;18.08;;;12.02;;
27313;SDS011;14800;48.174;9.798;2022-12-15T03:51:45;19.98;;;12.75;;
27313;SDS011;14800;48.174;9.798;2022-12-15T03:54:12;19.65;;;12.25;;
27313;SDS011;14800;48.174;9.798;2022-12-15T03:56:38;20.58;;;12.05;;
27313;SDS011;14800;48.174;9.798;2022-12-15T03:59:03;21.55;;;13.32;;
27313;SDS011;14800;48.174;9.798;2022-12-15T04:01:33;18.95;;;12.35;;
27313;SDS011;14800;48.174;9.798;2022-12-15T04:04:00;19.45;;;12.45;;
27313;SDS011;14800;48.174;9.798;2022-12-15T04:06:27;20.48;;;13.10;;
27313;SDS011;14800;48.174;9.798;2022-12-15T04:08:54;20.42;;;12.90;;
27313;SDS011;14800;48.174;9.798;2022-12-15T04:11:19;21.10;;;14.05;;
27313;SDS011;14800;48.174;9.798;2022-12-15T04:13:45;22.15;;;13.50;;
27313;SDS011;14800;48.174;9.798;2022-12-15T04:16:11;21.67;;;13.70;;
27313;SDS011;14800;48.174;9.798;2022-12-15T04:18:36;21.38;;;13.43;;
27313;SDS011;14800;48.174;9.798;2022-12-15T04:21:02;24.73;;;14.68;;
27313;SDS011;14800;48.174;9.798;2022-12-15T04:23:28;23.35;;;13.95;;
27313;SDS011;14800;48.174;9.798;2022-12-15T04:25:53;22.08;;;13.50;;
27313;SDS011;14800;48.174;9.798;2022-12-15T04:28:38;24.08;;;15.15;;
27313;SDS011;14800;48.174;9.798;2022-12-15T04:31:26;26.88;;;15.77;;
27313;SDS011;14800;48.174;9.798;2022-12-15T04:34:17;24.38;;;14.73;;
27313;SDS011;14800;48.174;9.798;2022-12-15T04:37:04;28.40;;;16.95;;
27313;SDS011;14800;48.174;9.798;2022-12-15T04:39:51;27.15;;;16.50;;
27313;SDS011;14800;48.174;9.798;2022-12-15T04:42:39;26.40;;;16.25;;
27313;SDS011;14800;48.174;9.798;2022-12-15T04:45:26;27.85;;;16.10;;
27313;SDS011;14800;48.174;9.798;2022-12-15T04:48:10;29.63;;;17.30;;
27313;SDS011;14800;48.174;9.798;2022-12-15T04:50:55;33.17;;;20.08;;
27313;SDS011;14800;48.174;9.798;2022-12-15T04:53:39;37.67;;;21.70;;
27313;SDS011;14800;48.174;9.798;2022-12-15T04:56:25;39.70;;;22.73;;
27313;SDS011;14800;48.174;9.798;2022-12-15T04:59:09;35.40;;;19.92;;
27313;SDS011;14800;48.174;9.798;2022-12-15T05:01:54;33.10;;;20.20;;
27313;SDS011;14800;48.174;9.798;2022-12-15T05:04:38;34.55;;;20.50;;
27313;SDS011;14800;48.174;9.798;2022-12-15T05:07:23;37.93;;;21.37;;
27313;SDS011;14800;48.174;9.798;2022-12-15T05:10:08;35.60;;;21.45;;
27313;SDS011;14800;48.174;9.798;2022-12-15T05:12:53;37.35;;;21.27;;
27313;SDS011;14800;48.174;9.798;2022-12-15T05:15:37;38.67;;;21.75;;
27313;SDS011;14800;48.174;9.798;2022-12-15T05:18:22;35.47;;;20.90;;
27313;SDS011;14800;48.174;9.798;2022-12-15T05:21:06;38.20;;;21.10;;
27313;SDS011;14800;48.174;9.798;2022-12-15T05:23:50;32.00;;;19.58;;
27313;SDS011;14800;48.174;9.798;2022-12-15T05:26:35;32.38;;;19.38;;
27313;SDS011;14800;48.174;9.798;2022-12-15T05:29:19;28.25;;;17.98;;
27313;SDS011;14800;48.174;9.798;2022-12-15T05:34:30;30.55;;;17.80;;
27313;SDS011;14800;48.174;9.798;2022-12-15T05:36:58;29.75;;;18.33;;
27313;SDS011;14800;48.174;9.798;2022-12-15T05:39:24;28.60;;;18.30;;
27313;SDS011;14800;48.174;9.798;2022-12-15T05:41:51;32.75;;;20.02;;
27313;SDS011;14800;48.174;9.798;2022-12-15T05:44:17;27.17;;;17.10;;
27313;SDS011;14800;48.174;9.798;2022-12-15T05:46:43;30.88;;;18.77;;
27313;SDS011;14800;48.174;9.798;2022-12-15T05:49:11;29.67;;;17.73;;
27313;SDS011;14800;48.174;9.798;2022-12-15T05:51:39;30.30;;;18.08;;
27313;SDS011;14800;48.174;9.798;2022-12-15T05:54:06;28.08;;;17.33;;
27313;SDS011;14800;48.174;9.798;2022-12-15T05:56:33;30.85;;;18.38;;
27313;SDS011;14800;48.174;9.798;2022-12-15T05:58:59;28.48;;;17.38;;
27313;SDS011;14800;48.174;9.798;2022-12-15T06:01:25;28.35;;;17.50;;
27313;SDS011;14800;48.174;9.798;2022-12-15T06:03:52;29.38;;;18.13;;
27313;SDS011;14800;48.174;9.798;2022-12-15T06:06:18;27.67;;;17.55;;
27313;SDS011;14800;48.174;9.798;2022-12-15T06:08:43;27.92;;;17.92;;
27313;SDS011;14800;48.174;9.798;2022-12-15T06:11:13;31.60;;;18.08;;
27313;SDS011;14800;48.174;9.798;2022-12-15T06:13:39;27.63;;;17.75;;
27313;SDS011;14800;48.174;9.798;2022-12-15T06:16:08;30.50;;;18.30;;
27313;SDS011;14800;48.174;9.798;2022-12-15T06:18:36;30.85;;;18.50;;
27313;SDS011;14800;48.174;9.798;2022-12-15T06:21:23;28.83;;;18.45;;
27313;SDS011;14800;48.174;9.798;2022-12-15T06:23:51;28.77;;;17.80;;
27313;SDS011;14800;48.174;9.798;2022-12-15T06:26:18;31.92;;;18.52;;
27313;SDS011;14800;48.174;9.798;2022-12-15T06:29:05;30.40;;;17.90;;
27313;SDS011;14800;48.174;9.798;2022-12-15T06:31:33;30.45;;;18.65;;
27313;SDS011;14800;48.174;9.798;2022-12-15T06:34:01;32.75;;;20.13;;
27313;SDS011;14800;48.174;9.798;2022-12-15T06:36:28;32.78;;;19.08;;
27313;SDS011;14800;48.174;9.798;2022-12-15T06:38:56;31.63;;;18.50;;
27313;SDS011;14800;48.174;9.798;2022-12-15T06:41:23;32.30;;;18.77;;
27313;SDS011;14800;48.174;9.798;2022-12-15T06:43:49;31.75;;;19.20;;
27313;SDS011;14800;48.174;9.798;2022-12-15T06:46:17;33.80;;;19.40;;
27313;SDS011;14800;48.174;9.798;2022-12-15T06:48:44;32.03;;;19.25;;
27313;SDS011;14800;48.174;9.798;2022-12-15T06:51:11;30.92;;;18.55;;
27313;SDS011;14800;48.174;9.798;2022-12-15T06:53:38;35.00;;;19.98;;
27313;SDS011;14800;48.174;9.798;2022-12-15T06:56:14;33.95;;;19.58;;
27313;SDS011;14800;48.174;9.798;2022-12-15T06:58:46;32.33;;;19.35;;
27313;SDS011;14800;48.174;9.798;2022-12-15T07:01:12;32.72;;;19.75;;
27313;SDS011;14800;48.174;9.798;2022-12-15T07:03:39;35.05;;;20.67;;
27313;SDS011;14800;48.174;9.798;2022-12-15T07:06:09;34.33;;;20.15;;
27313;SDS011;14800;48.174;9.798;2022-12-15T07:08:36;33.28;;;19.95;;
27313;SDS011;14800;48.174;9.798;2022-12-15T07:11:02;33.60;;;20.50;;
27313;SDS011;14800;48.174;9.798;2022-12-15T07:13:29;36.53;;;21.45;;
27313;SDS011;14800;48.174;9.798;2022-12-15T07:15:59;36.35;;;21.02;;
27313;SDS011;14800;48.174;9.798;2022-12-15T07:18:29;25.90;;;15.23;;
27313;SDS011;14800;48.174;9.798;2022-12-15T07:21:05;34.60;;;20.55;;
27313;SDS011;14800;48.174;9.798;2022-12-15T07:23:32;39.83;;;21.30;;
27313;SDS011;14800;48.174;9.798;2022-12-15T07:26:02;37.47;;;21.48;;
27313;SDS011;14800;48.174;9.798;2022-12-15T07:28:28;37.33;;;21.75;;
27313;SDS011;14800;48.174;9.798;2022-12-15T07:30:54;41.78;;;22.48;;
27313;SDS011;14800;48.174;9.798;2022-12-15T07:33:20;40.13;;;22.13;;
27313;SDS011;14800;48.174;9.798;2022-12-15T07:35:54;39.33;;;22.00;;
27313;SDS011;14800;48.174;9.798;2022-12-15T07:40:45;43.17;;;21.88;;
27313;SDS011;14800;48.174;9.798;2022-12-15T07:43:11;41.53;;;22.35;;
27313;SDS011;14800;48.174;9.798;2022-12-15T07:45:36;41.60;;;22.58;;
27313;SDS011;14800;48.174;9.798;2022-12-15T07:48:02;40.28;;;21.88;;
27313;SDS011;14800;48.174;9.798;2022-12-15T07:50:28;41.80;;;23.42;;
27313;SDS011;14800;48.174;9.798;2022-12-15T07:52:53;44.20;;;23.25;;
27313;SDS011;14800;48.174;9.798;2022-12-15T07:55:19;39.47;;;22.10;;
27313;SDS011;14800;48.174;9.798;2022-12-15T07:57:47;41.92;;;23.90;;
27313;SDS011;14800;48.174;9.798;2022-12-15T08:00:13;41.25;;;22.50;;
27313;SDS011;14800;48.174;9.798;2022-12-15T08:02:40;44.38;;;22.30;;
27313;SDS011;14800;48.174;9.798;2022-12-15T08:05:06;42.85;;;22.65;;
27313;SDS011;14800;48.174;9.798;2022-12-15T08:07:33;44.35;;;24.25;;
27313;SDS011;14800;48.174;9.798;2022-12-15T08:09:59;42.03;;;22.85;;
27313;SDS011;14800;48.174;9.798;2022-12-15T08:12:25;39.88;;;23.20;;
27313;SDS011;14800;48.174;9.798;2022-12-15T08:14:55;40.38;;;22.80;;
27313;SDS011;14800;48.174;9.798;2022-12-15T08:17:20;38.97;;;22.48;;
27313;SDS011;14800;48.174;9.798;2022-12-15T08:19:46;41.65;;;22.05;;
27313;SDS011;14800;48.174;9.798;2022-12-15T08:22:12;41.80;;;23.08;;
27313;SDS011;14800;48.174;9.798;2022-12-15T08:24:39;41.95;;;22.73;;
27313;SDS011;14800;48.174;9.798;2022-12-15T08:27:05;39.17;;;21.23;;
27313;SDS011;14800;48.174;9.798;2022-12-15T08:29:30;42.78;;;22.98;;
27313;SDS011;14800;48.174;9.798;2022-12-15T08:31:56;42.03;;;22.83;;
27313;SDS011;14800;48.174;9.798;2022-12-15T08:34:22;40.75;;;22.85;;
27313;SDS011;14800;48.174;9.798;2022-12-15T08:36:47;42.72;;;23.67;;
27313;SDS011;14800;48.174;9.798;2022-12-15T08:39:13;45.20;;;23.25;;
27313;SDS011;14800;48.174;9.798;2022-12-15T08:41:39;42.72;;;23.58;;
27313;SDS011;14800;48.174;9.798;2022-12-15T08:44:05;40.47;;;22.90;;
27313;SDS011;14800;48.174;9.798;2022-12-15T08:46:31;41.58;;;23.13;;
27313;SDS011;14800;48.174;9.798;2022-12-15T08:48:58;44.08;;;23.58;;
27313;SDS011;14800;48.174;9.798;2022-12-15T08:51:25;38.80;;;22.00;;
27313;SDS011;14800;48.174;9.798;2022-12-15T08:53:53;42.50;;;23.52;;
27313;SDS011;14800;48.174;9.798;2022-12-15T08:56:19;42.17;;;22.75;;
27313;SDS011;14800;48.174;9.798;2022-12-15T08:58:46;45.35;;;24.20;;
27313;SDS011;14800;48.174;9.798;2022-12-15T09:01:14;40.05;;;21.90;;
27313;SDS011;14800;48.174;9.798;2022-12-15T09:03:42;44.75;;;23.73;;
27313;SDS011;14800;48.174;9.798;2022-12-15T09:06:41;43.20;;;23.92;;
27313;SDS011;14800;48.174;9.798;2022-12-15T09:09:02;42.88;;;22.42;;
27313;SDS011;14800;48.174;9.798;2022-12-15T09:11:31;42.40;;;22.58;;
27313;SDS011;14800;48.174;9.798;2022-12-15T09:13:57;41.15;;;22.50;;
27313;SDS011;14800;48.174;9.798;2022-12-15T09:16:23;41.92;;;22.67;;
27313;SDS011;14800;48.174;9.798;2022-12-15T09:18:50;38.92;;;22.10;;
27313;SDS011;14800;48.174;9.798;2022-12-15T09:21:17;39.10;;;22.35;;
27313;SDS011;14800;48.174;9.798;2022-12-15T09:23:46;40.42;;;22.65;;
27313;SDS011;14800;48.174;9.798;2022-12-15T09:26:15;43.38;;;23.48;;
27313;SDS011;14800;48.174;9.798;2022-12-15T09:28:41;44.42;;;23.30;;
27313;SDS011;14800;48.174;9.798;2022-12-15T09:31:08;42.78;;;23.95;;
27313;SDS011;14800;48.174;9.798;2022-12-15T09:33:36;44.20;;;24.15;;
27313;SDS011;14800;48.174;9.798;2022-12-15T09:36:03;45.97;;;24.52;;
27313;SDS011;14800;48.174;9.798;2022-12-15T09:38:29;46.90;;;26.60;;
27313;SDS011;14800;48.174;9.798;2022-12-15T09:40:57;46.28;;;25.08;;
27313;SDS011;14800;48.174;9.798;2022-12-15T09:43:30;48.22;;;25.95;;
27313;SDS011;14800;48.174;9.798;2022-12-15T09:45:58;47.55;;;25.88;;
27313;SDS011;14800;48.174;9.798;2022-12-15T09:48:33;46.70;;;24.90;;
27313;SDS011;14800;48.174;9.798;2022-12-15T09:51:04;42.92;;;23.73;;
27313;SDS011;14800;48.174;9.798;2022-12-15T09:53:36;45.85;;;25.58;;
27313;SDS011;14800;48.174;9.798;2022-12-15T09:56:03;45.50;;;25.27;;
27313;SDS011;14800;48.174;9.798;2022-12-15T10:01:00;44.03;;;23.92;;
27313;SDS011;14800;48.174;9.798;2022-12-15T10:04:00;44.28;;;24.80;;
27313;SDS011;14800;48.174;9.798;2022-12-15T10:09:26;46.35;;;24.65;;
27313;SDS011;14800;48.174;9.798;2022-12-15T10:19:52;47.97;;;25.02;;
27313;SDS011;14800;48.174;9.798;2022-12-15T10:22:23;57.97;;;32.22;;
27313;SDS011;14800;48.174;9.798;2022-12-15T10:24:54;56.78;;;30.45;;
27313;SDS011;14800;48.174;9.798;2022-12-15T10:30:10;44.40;;;24.75;;
27313;SDS011;14800;48.174;9.798;2022-12-15T10:32:50;44.22;;;24.83;;
27313;SDS011;14800;48.174;9.798;2022-12-15T10:35:48;45.13;;;24.30;;
27313;SDS011;14800;48.174;9.798;2022-12-15T10:38:23;45.00;;;24.40;;
27313;SDS011;14800;48.174;9.798;2022-12-15T10:40:53;44.40;;;24.75;;
27313;SDS011;14800;48.174;9.798;2022-12-15T10:46:00;44.42;;;23.90;;
27313;SDS011;14800;48.174;9.798;2022-12-15T10:48:49;46.95;;;25.55;;
27313;SDS011;14800;48.174;9.798;2022-12-15T10:56:33;52.10;;;26.95;;
27313;SDS011;14800;48.174;9.798;2022-12-15T11:01:47;53.22;;;26.80;;
27313;SDS011;14800;48.174;9.798;2022-12-15T11:04:34;49.92;;;25.98;;
27313;SDS011;14800;48.174;9.798;2022-12-15T11:06:59;54.80;;;28.17;;
27313;SDS011;14800;48.174;9.798;2022-12-15T11:09:33;50.47;;;25.75;;
27313;SDS011;14800;48.174;9.798;2022-12-15T11:12:00;47.15;;;25.35;;
27313;SDS011;14800;48.174;9.798;2022-12-15T11:14:46;54.50;;;27.67;;
27313;SDS011;14800;48.174;9.798;2022-12-15T11:17:15;55.17;;;28.70;;
27313;SDS011;14800;48.174;9.798;2022-12-15T11:19:53;54.65;;;28.48;;
27313;SDS011;14800;48.174;9.798;2022-12-15T11:25:40;52.55;;;26.55;;
27313;SDS011;14800;48.174;9.798;2022-12-15T11:28:11;56.42;;;28.67;;
27313;SDS011;14800;48.174;9.798;2022-12-15T11:30:41;56.67;;;29.48;;
27313;SDS011;14800;48.174;9.798;2022-12-15T11:33:11;53.88;;;28.80;;
27313;SDS011;14800;48.174;9.798;2022-12-15T11:40:56;62.50;;;31.08;;
27313;SDS011;14800;48.174;9.798;2022-12-15T11:46:23;65.72;;;30.30;;
27313;SDS011;14800;48.174;9.798;2022-12-15T11:51:51;62.13;;;30.50;;
27313;SDS011;14800;48.174;9.798;2022-12-15T11:54:58;66.15;;;31.35;;
27313;SDS011;14800;48.174;9.798;2022-12-15T11:57:50;66.65;;;31.77;;
27313;SDS011;14800;48.174;9.798;2022-12-15T12:00:25;65.25;;;31.20;;
27313;SDS011;14800;48.174;9.798;2022-12-15T12:03:54;67.65;;;31.23;;
27313;SDS011;14800;48.174;9.798;2022-12-15T12:11:14;66.25;;;31.42;;
27313;SDS011;14800;48.174;9.798;2022-12-15T12:13:49;70.88;;;33.72;;
27313;SDS011;14800;48.174;9.798;2022-12-15T12:19:26;60.80;;;29.05;;
27313;SDS011;14800;48.174;9.798;2022-12-15T12:22:10;67.72;;;31.75;;
27313;SDS011;14800;48.174;9.798;2022-12-15T12:24:48;64.55;;;29.38;;
27313;SDS011;14800;48.174;9.798;2022-12-15T12:29:56;63.72;;;30.05;;
27313;SDS011;14800;48.174;9.798;2022-12-15T12:35:11;63.38;;;29.45;;
27313;SDS011;14800;48.174;9.798;2022-12-15T12:38:01;56.22;;;27.88;;
27313;SDS011;14800;48.174;9.798;2022-12-15T12:43:05;63.92;;;30.92;;
27313;SDS011;14800;48.174;9.798;2022-12-15T12:45:55;61.25;;;29.30;;
27313;SDS011;14800;48.174;9.798;2022-12-15T12:48:26;61.15;;;29.85;;
27313;SDS011;14800;48.174;9.798;2022-12-15T12:51:11;58.58;;;28.50;;
27313;SDS011;14800;48.174;9.798;2022-12-15T12:53:57;62.08;;;29.98;;
27313;SDS011;14800;48.174;9.798;2022-12-15T12:56:27;61.95;;;30.42;;
27313;SDS011;14800;48.174;9.798;2022-12-15T12:59:00;62.30;;;29.40;;
27313;SDS011;14800;48.174;9.798;2022-12-15T13:01:32;63.15;;;29.90;;
27313;SDS011;14800;48.174;9.798;2022-12-15T13:04:10;64.05;;;30.63;;
27313;SDS011;14800;48.174;9.798;2022-12-15T13:14:23;62.03;;;29.58;;
27313;SDS011;14800;48.174;9.798;2022-12-15T13:17:02;59.90;;;28.88;;
27313;SDS011;14800;48.174;9.798;2022-12-15T13:22:24;60.03;;;29.80;;
27313;SDS011;14800;48.174;9.798;2022-12-15T13:24:52;66.85;;;29.90;;
27313;SDS011;14800;48.174;9.798;2022-12-15T13:27:20;63.63;;;29.48;;
27313;SDS011;14800;48.174;9.798;2022-12-15T13:30:12;100.55;;;43.30;;
27313;SDS011;14800;48.174;9.798;2022-12-15T13:32:46;73.63;;;35.22;;
27313;SDS011;14800;48.174;9.798;2022-12-15T13:35:28;72.13;;;35.50;;
27313;SDS011;14800;48.174;9.798;2022-12-15T13:45:30;65.70;;;30.25;;
27313;SDS011;14800;48.174;9.798;2022-12-15T13:53:59;65.22;;;31.40;;
27313;SDS011;14800;48.174;9.798;2022-12-15T13:56:48;65.13;;;30.38;;
27313;SDS011;14800;48.174;9.798;2022-12-15T13:59:26;64.60;;;31.77;;
27313;SDS011;14800;48.174;9.798;2022-12-15T14:01:53;64.75;;;30.52;;
27313;SDS011;14800;48.174;9.798;2022-12-15T14:04:19;64.50;;;30.42;;
27313;SDS011;14800;48.174;9.798;2022-12-15T14:06:47;56.00;;;27.77;;
27313;SDS011;14800;48.174;9.798;2022-12-15T14:09:14;64.70;;;30.40;;
27313;SDS011;14800;48.174;9.798;2022-12-15T14:11:44;56.60;;;29.13;;
27313;SDS011;14800;48.174;9.798;2022-12-15T14:14:15;61.45;;;29.52;;
27313;SDS011;14800;48.174;9.798;2022-12-15T14:17:09;65.07;;;30.58;;
27313;SDS011;14800;48.174;9.798;2022-12-15T14:19:41;61.28;;;29.27;;
27313;SDS011;14800;48.174;9.798;2022-12-15T14:22:18;63.83;;;30.02;;
27313;SDS011;14800;48.174;9.798;2022-12-15T14:24:49;57.88;;;28.65;;
27313;SDS011;14800;48.174;9.798;2022-12-15T14:30:10;57.00;;;27.92;;
27313;SDS011;14800;48.174;9.798;2022-12-15T14:32:37;58.22;;;27.98;;
27313;SDS011;14800;48.174;9.798;2022-12-15T14:35:04;58.85;;;28.42;;
27313;SDS011;14800;48.174;9.798;2022-12-15T14:37:33;61.38;;;30.40;;
27313;SDS011;14800;48.174;9.798;2022-12-15T14:39:58;67.35;;;32.25;;
27313;SDS011;14800;48.174;9.798;2022-12-15T14:42:25;66.05;;;31.65;;
27313;SDS011;14800;48.174;9.798;2022-12-15T14:44:52;62.10;;;31.55;;
27313;SDS011;14800;48.174;9.798;2022-12-15T14:47:22;62.15;;;30.75;;
27313;SDS011;14800;48.174;9.798;2022-12-15T14:49:57;62.50;;;31.88;;
27313;SDS011;14800;48.174;9.798;2022-12-15T14:54:55;63.28;;;32.08;;
27313;SDS011;14800;48.174;9.798;2022-12-15T14:57:24;58.75;;;30.40;;
27313;SDS011;14800;48.174;9.798;2022-12-15T14:59:52;66.57;;;33.63;;
27313;SDS011;14800;48.174;9.798;2022-12-15T15:04:55;59.38;;;30.15;;
27313;SDS011;14800;48.174;9.798;2022-12-15T15:07:23;64.55;;;30.83;;
27313;SDS011;14800;48.174;9.798;2022-12-15T15:09:50;67.05;;;31.50;;
27313;SDS011;14800;48.174;9.798;2022-12-15T15:12:21;65.03;;;31.13;;
27313;SDS011;14800;48.174;9.798;2022-12-15T15:15:18;69.05;;;31.80;;
27313;SDS011;14800;48.174;9.798;2022-12-15T15:17:51;69.40;;;33.92;;
27313;SDS011;14800;48.174;9.798;2022-12-15T15:23:02;68.43;;;32.15;;
27313;SDS011;14800;48.174;9.798;2022-12-15T15:30:51;87.10;;;38.38;;
27313;SDS011;14800;48.174;9.798;2022-12-15T15:33:22;82.40;;;36.85;;
27313;SDS011;14800;48.174;9.798;2022-12-15T15:35:49;73.00;;;32.92;;
27313;SDS011;14800;48.174;9.798;2022-12-15T15:38:24;70.38;;;32.45;;
27313;SDS011;14800;48.174;9.798;2022-12-15T15:40:56;68.85;;;31.15;;
27313;SDS011;14800;48.174;9.798;2022-12-15T15:43:24;69.03;;;33.75;;
27313;SDS011;14800;48.174;9.798;2022-12-15T15:46:01;69.90;;;31.90;;
27313;SDS011;14800;48.174;9.798;2022-12-15T15:48:54;70.03;;;32.42;;
27313;SDS011;14800;48.174;9.798;2022-12-15T15:51:20;74.53;;;33.35;;
27313;SDS011;14800;48.174;9.798;2022-12-15T15:53:47;70.25;;;33.38;;
27313;SDS011;14800;48.174;9.798;2022-12-15T15:56:13;79.15;;;36.15;;
27313;SDS011;14800;48.174;9.798;2022-12-15T15:58:40;77.22;;;35.35;;
27313;SDS011;14800;48.174;9.798;2022-12-15T16:01:07;72.80;;;34.33;;
27313;SDS011;14800;48.174;9.798;2022-12-15T16:03:33;73.40;;;33.35;;
27313;SDS011;14800;48.174;9.798;2022-12-15T16:06:00;70.78;;;33.10;;
27313;SDS011;14800;48.174;9.798;2022-12-15T16:08:27;70.80;;;32.75;;
27313;SDS011;14800;48.174;9.798;2022-12-15T16:10:57;77.07;;;33.95;;
27313;SDS011;14800;48.174;9.798;2022-12-15T16:13:23;73.07;;;31.77;;
27313;SDS011;14800;48.174;9.798;2022-12-15T16:15:49;75.75;;;33.70;;
27313;SDS011;14800;48.174;9.798;2022-12-15T16:18:14;81.50;;;36.67;;
27313;SDS011;14800;48.174;9.798;2022-12-15T16:20:41;82.07;;;36.63;;
27313;SDS011;14800;48.174;9.798;2022-12-15T16:23:15;88.13;;;37.38;;
27313;SDS011;14800;48.174;9.798;2022-12-15T16:25:43;90.90;;;38.05;;
27313;SDS011;14800;48.174;9.798;2022-12-15T16:28:12;87.88;;;37.47;;
27313;SDS011;14800;48.174;9.798;2022-12-15T16:30:39;80.70;;;36.30;;
27313;SDS011;14800;48.174;9.798;2022-12-15T16:33:05;81.65;;;36.25;;
27313;SDS011;14800;48.174;9.798;2022-12-15T16:35:31;77.30;;;33.95;;
27313;SDS011;14800;48.174;9.798;2022-12-15T16:37:56;91.00;;;36.20;;
27313;SDS011;14800;48.174;9.798;2022-12-15T16:40:23;84.05;;;35.22;;
27313;SDS011;14800;48.174;9.798;2022-12-15T16:42:58;79.07;;;34.20;;
27313;SDS011;14800;48.174;9.798;2022-12-15T16:45:25;77.95;;;33.80;;
27313;SDS011;14800;48.174;9.798;2022-12-15T16:47:53;79.10;;;34.70;;
27313;SDS011;14800;48.174;9.798;2022-12-15T16:50:20;82.88;;;36.58;;
27313;SDS011;14800;48.174;9.798;2022-12-15T16:52:51;82.80;;;36.17;;
27313;SDS011;14800;48.174;9.798;2022-12-15T16:55:25;82.97;;;36.50;;
27313;SDS011;14800;48.174;9.798;2022-12-15T16:57:57;84.93;;;36.30;;
27313;SDS011;14800;48.174;9.798;2022-12-15T17:00:25;80.75;;;36.47;;
27313;SDS011;14800;48.174;9.798;2022-12-15T17:02:52;84.32;;;36.28;;